Bei Facebook empfehlenBei Twitter postenGoogle plusPinterest

Das Wetter im Erzgebirge am 01.01.2017

Wetter und Klima am 01.01.2017 Holzhau im Erzgebirge (630m ü.NN)
Letzte gemessene Temperatur und Uhrzeit der Messung23:45:00 Uhr-4.70 °C
Temperatur (Maximum / Höchstwert) und Uhrzeit der Messung14:00:00 Uhr6.20 °C
Temperatur (Minimum / Tiefstwert) und Uhrzeit der Messung08:15:00-8.90 °C
Errechneter Absolutwert der Temperaturschwankungen zwischen Tmin und Tmax des Tages15.10 K
Errechnete Tagesmitteltemperatur-4.23750 °C
Gesamt - Niederschlag des Tages (in flüssiger Form)0.00 Liter / m²
Luftdruck (Maximum / Höchstwert) und Zeitpunkt der Messung00:00:00 Uhr1021.20 hPa
Luftdruck (Minimum / Tiefstwert) und Zeitpunkt der Messung23:45:00 Uhr1010.90 hPa
Errechneter Absolutwert der Luftdruckschwankungen des Tages10.30 hPa
Höchste gemessene Windgeschwindigkeit und Uhrzeit der Messung23:45:00 Uhr0.00 km/h
Errechnete Windhäufigkeit in Relation zu den Messwerten des Tages0.00000 %
Niedrigste Windkühle (Windchill) und Zeitpunkt der Messung08:15:00 Uhr-8.90 °C
Taupunkt (Maximum / Höchstwert) und Uhrzeit der Messung11:30:00 Uhr1.20 °C
Taupunkt (Minimum / Tiefstwert) und Uhrzeit der Messung08:15:00-9.90 °C
Anzahl der automatisch eingelesenen Messwerte 96

Detaillierte Wetter- und Klima- Messwerte für den 01.01.2017 in Holzhau im Erzgebirge (630m ü.NN)
ZeitTemperaturLuftdruckRel. LuftfeuchteWindWindrichtungWindchillTaupunktNiederschlag l/m²
23:45:00-4.70 °C1010.90 hPa89.00 %-6.40 °C 
23:30:00-5.10 °C1011.00 hPa88.00 %-7.00 °C 
23:15:00-5.00 °C1011.10 hPa89.00 %-6.70 °C 
23:00:00-5.20 °C1011.20 hPa88.00 %-7.10 °C 
22:45:00-5.40 °C1011.40 hPa88.00 %-7.30 °C 
22:30:00-5.60 °C1011.40 hPa88.00 %-7.50 °C 
22:15:00-5.40 °C1011.50 hPa88.00 %-7.30 °C 
22:00:00-5.40 °C1011.70 hPa88.00 %-7.30 °C 
21:45:00-5.50 °C1011.90 hPa88.00 %-7.40 °C 
21:30:00-5.30 °C1011.60 hPa88.00 %-7.20 °C 
21:15:00-5.30 °C1011.80 hPa87.00 %-7.30 °C 
21:00:00-5.20 °C1012.10 hPa87.00 %-7.20 °C 
20:45:00-5.10 °C1012.10 hPa87.00 %-7.10 °C 
20:30:00-4.90 °C1012.10 hPa87.00 %-6.90 °C 
20:15:00-5.10 °C1012.20 hPa87.00 %-7.10 °C 
20:00:00-5.10 °C1012.20 hPa86.00 %-7.30 °C 
19:45:00-5.00 °C1012.30 hPa86.00 %-7.20 °C 
19:30:00-4.80 °C1012.40 hPa85.00 %-7.20 °C 
19:15:00-4.60 °C1012.80 hPa85.00 %-7.00 °C 
19:00:00-4.40 °C1012.80 hPa85.00 %-6.80 °C 
18:45:00-4.20 °C1012.90 hPa84.00 %-6.80 °C 
18:30:00-4.10 °C1013.20 hPa83.00 %-6.80 °C 
18:15:00-3.90 °C1013.10 hPa83.00 %-6.70 °C 
18:00:00-3.60 °C1013.10 hPa82.00 %-6.50 °C 
17:45:00-3.30 °C1013.30 hPa81.00 %-6.40 °C 
17:30:00-3.20 °C1013.30 hPa80.00 %-6.50 °C 
17:15:00-3.00 °C1013.40 hPa79.00 %-6.50 °C 
17:00:00-2.60 °C1013.40 hPa78.00 %-6.30 °C 
16:45:00-2.20 °C1013.50 hPa76.00 %-6.30 °C 
16:30:00-1.80 °C1013.70 hPa75.00 %-6.10 °C 
16:15:00-1.10 °C1013.60 hPa73.00 %-5.80 °C 
16:00:00-0.10 °C1013.80 hPa70.00 %-5.50 °C 
15:45:001.30 °C1013.90 hPa67.00 %-4.10 °C 
15:30:003.30 °C1013.60 hPa63.00 %-3.10 °C 
15:15:005.00 °C1013.90 hPa61.00 %-1.90 °C 
15:00:005.60 °C1013.90 hPa61.00 %-1.30 °C 
14:45:005.90 °C1013.90 hPa62.00 %-0.80 °C 
14:30:005.90 °C1013.90 hPa61.00 %-1.00 °C 
14:15:005.90 °C1013.90 hPa59.00 %-1.50 °C 
14:00:006.20 °C1013.90 hPa60.00 %-1.00 °C 
13:45:006.10 °C1013.90 hPa61.00 %-0.80 °C 
13:30:005.80 °C1013.90 hPa60.00 %-1.30 °C 
13:15:005.60 °C1014.10 hPa60.00 %-1.50 °C 
13:00:005.40 °C1014.00 hPa63.00 %-1.10 °C 
12:45:005.20 °C1014.00 hPa65.00 %-0.80 °C 
12:30:004.90 °C1014.20 hPa66.00 %-0.90 °C 
12:15:004.40 °C1014.30 hPa72.00 %-0.20 °C 
12:00:003.90 °C1014.40 hPa78.00 %0.40 °C 
11:45:003.40 °C1014.50 hPa85.00 %1.10 °C 
11:30:002.70 °C1014.80 hPa90.00 %1.20 °C 
11:15:000.90 °C1015.00 hPa93.00 %-0.10 °C 
11:00:00-1.90 °C1015.00 hPa94.00 %-2.80 °C 
10:45:00-3.90 °C1015.00 hPa94.00 %-4.80 °C 
10:30:00-4.60 °C1015.30 hPa94.00 %-5.50 °C 
10:15:00-5.20 °C1015.60 hPa94.00 %-6.10 °C 
10:00:00-6.20 °C1015.60 hPa94.00 %-7.10 °C 
09:45:00-7.30 °C1015.80 hPa93.00 %-8.40 °C 
09:30:00-7.60 °C1016.00 hPa93.00 %-8.60 °C 
09:15:00-7.70 °C1016.10 hPa93.00 %-8.70 °C 
09:00:00-8.20 °C1016.30 hPa93.00 %-9.20 °C 
08:45:00-8.40 °C1016.30 hPa93.00 %-9.40 °C 
08:30:00-8.70 °C1016.30 hPa93.00 %-9.70 °C 
08:15:00-8.90 °C1016.40 hPa93.00 %-9.90 °C 
08:00:00-8.90 °C1016.30 hPa93.00 %-9.90 °C 
07:45:00-8.90 °C1016.60 hPa93.00 %-9.90 °C 
07:30:00-8.80 °C1016.70 hPa93.00 %-9.80 °C 
07:15:00-8.80 °C1016.80 hPa93.00 %-9.80 °C 
07:00:00-8.80 °C1017.10 hPa93.00 %-9.80 °C 
06:45:00-8.80 °C1017.10 hPa93.00 %-9.80 °C 
06:30:00-8.70 °C1017.10 hPa93.00 %-9.70 °C 
06:15:00-8.70 °C1017.10 hPa93.00 %-9.70 °C 
06:00:00-8.70 °C1017.10 hPa93.00 %-9.70 °C 
05:45:00-8.60 °C1017.30 hPa93.00 %-9.60 °C 
05:30:00-8.50 °C1017.60 hPa93.00 %-9.50 °C 
05:15:00-8.60 °C1017.70 hPa94.00 %-9.50 °C 
05:00:00-8.50 °C1017.80 hPa94.00 %-9.40 °C 
04:45:00-8.50 °C1018.00 hPa94.00 %-9.40 °C 
04:30:00-8.60 °C1018.30 hPa94.00 %-9.50 °C 
04:15:00-8.50 °C1018.50 hPa94.00 %-9.40 °C 
04:00:00-8.40 °C1018.60 hPa94.00 %-9.30 °C 
03:45:00-8.40 °C1018.70 hPa94.00 %-9.30 °C 
03:30:00-8.40 °C1018.90 hPa94.00 %-9.30 °C 
03:15:00-8.50 °C1019.30 hPa94.00 %-9.40 °C 
03:00:00-8.70 °C1019.40 hPa94.00 %-9.60 °C 
02:45:00-8.70 °C1019.50 hPa94.00 %-9.60 °C 
02:30:00-8.60 °C1019.50 hPa94.00 %-9.50 °C 
02:15:00-8.60 °C1019.50 hPa94.00 %-9.50 °C 
02:00:00-8.50 °C1019.70 hPa94.00 %-9.40 °C 
01:45:00-8.40 °C1019.70 hPa94.00 %-9.30 °C 
01:30:00-8.40 °C1019.90 hPa94.00 %-9.30 °C 
01:15:00-8.20 °C1020.10 hPa94.00 %-9.10 °C 
01:00:00-8.20 °C1020.20 hPa94.00 %-9.10 °C 
00:45:00-8.10 °C1020.40 hPa94.00 %-9.00 °C 
00:30:00-7.90 °C1020.40 hPa94.00 %-8.80 °C 
00:15:00-7.80 °C1020.80 hPa94.00 %-8.70 °C 
00:00:00-7.70 °C1021.20 hPa94.00 %-8.60 °C 

Permanenter Link zu dieser Seite: Wetter im Erzgebirge am 01.01.2017
Performance-Info: Die Erstellung der Seite / Statistik(en) / Tabelle(n) erforderte 5 Datenbankserver-Abfrage(n) und dauerte 128 Millisekunden. (Dieser Messwert ist von der Gesamt-Auslastung des Servers abhängig.)
Erzgebirge - Wetter | Erzgebirge - Wetter (Mobilgeräte) | Komplette Klimadatenbank